.
WxDataArchive / Data Records for 2012-08-09
2012-08-08 August 2012 2012-08-10

Data Records for Thursday, 09 August 2012

Time	Temp	Chill	HIndex	Humid	Dewpt	 Wind 	HiWind	WindDir	Rain 	Barom 
-----	----	-----	------	-----	-----	------	------	-------	-----	----- 
00:00	76.0	76.0	78.1	57	59.6	2	6	90	0.00	29.887 
00:05	75.8	75.8	77.9	57	59.5	2	5	90	0.00	29.887 
00:10	75.8	75.8	77.9	57	59.5	1	5	90	0.00	29.887 
00:15	75.6	75.6	77.8	56	58.8	2	5	68	0.00	29.889 
00:20	75.4	75.4	77.7	57	59.1	2	6	112	0.00	29.889 
00:25	75.3	75.3	77.6	58	59.5	0	2	45	0.00	29.889 
00:30	75.1	75.1	77.5	58	59.3	1	3	68	0.00	29.896 
00:35	74.9	74.9	74.9	58	59.1	1	2	68	0.00	29.896 
00:40	74.7	74.7	74.7	58	58.9	1	3	68	0.00	29.896 
00:45	74.6	74.6	74.6	58	58.8	2	5	90	0.00	29.893 
00:50	74.6	74.6	74.6	58	58.8	2	4	68	0.00	29.893 
00:55	74.4	74.4	74.4	58	58.6	2	4	68	0.00	29.893 
01:00	74.4	74.4	74.4	58	58.6	2	5	90	0.00	29.890 
01:05	74.2	74.2	74.2	58	58.5	2	5	90	0.00	29.890 
01:10	74.2	74.2	74.2	59	58.9	1	4	90	0.00	29.890 
01:15	74.0	74.0	74.0	60	59.2	1	4	90	0.00	29.881 
01:20	73.9	73.9	73.9	61	59.6	1	3	90	0.00	29.881 
01:25	73.9	73.9	73.9	61	59.6	0	1	68	0.00	29.881 
01:30	73.7	73.7	73.7	62	59.9	0	2	68	0.00	29.900 
01:35	73.7	73.7	73.7	62	59.9	1	3	68	0.00	29.900 
01:40	73.9	73.9	73.9	60	59.1	1	4	315	0.00	29.900 
01:45	73.5	73.5	73.5	65	61.0	0	2	270	0.03	29.909 
01:50	72.7	72.7	72.7	73	63.5	1	3	270	0.01	29.909 
01:55	71.5	71.5	71.5	77	63.9	0	0	---	0.01	29.909 
02:00	70.3	70.3	70.3	80	63.8	0	0	---	0.01	29.894 
02:05	69.6	69.6	69.6	82	63.9	0	1	270	0.00	29.894 
02:10	69.1	69.1	69.1	84	64.1	0	3	0	0.00	29.894 
02:15	68.9	68.9	68.9	85	64.2	1	3	90	0.00	29.881 
02:20	68.9	68.9	68.9	85	64.2	1	4	90	0.00	29.881 
02:25	68.9	68.9	68.9	85	64.2	1	4	68	0.00	29.881 
02:30	69.1	69.1	69.1	86	64.7	1	3	68	0.00	29.879 
02:35	69.1	69.1	69.1	87	65.1	0	2	68	0.00	29.879 
02:40	69.1	69.1	69.1	87	65.1	0	1	68	0.00	29.879 
02:45	69.1	69.1	69.1	87	65.1	0	0	---	0.00	29.883 
02:50	69.1	69.1	69.1	88	65.4	0	0	---	0.00	29.883 
02:55	68.9	68.9	68.9	88	65.2	0	0	---	0.00	29.883 
03:00	68.9	68.9	68.9	89	65.5	0	0	---	0.00	29.879 
03:05	68.9	68.9	68.9	89	65.5	0	0	---	0.00	29.879 
03:10	68.9	68.9	68.9	89	65.5	0	0	---	0.00	29.879 
03:15	68.8	68.8	68.8	90	65.7	0	0	---	0.00	29.877 
03:20	68.8	68.8	68.8	90	65.7	0	0	---	0.00	29.877 
03:25	68.6	68.6	68.6	90	65.5	0	0	---	0.00	29.877 
03:30	68.8	68.8	68.8	91	66.1	0	0	---	0.00	29.874 
03:35	68.8	68.8	68.8	91	66.1	0	0	---	0.00	29.874 
03:40	68.6	68.6	68.6	91	65.9	0	0	---	0.00	29.874 
03:45	68.4	68.4	68.4	91	65.7	0	0	---	0.00	29.872 
03:50	68.3	68.3	68.3	91	65.6	0	0	---	0.00	29.872 
03:55	68.3	68.3	68.3	91	65.6	0	0	---	0.00	29.872 
04:00	68.1	68.1	68.1	91	65.4	0	0	---	0.00	29.869 
04:05	68.1	68.1	68.1	91	65.4	0	0	---	0.00	29.869 
04:10	68.1	68.1	68.1	91	65.4	0	0	---	0.00	29.869 
04:15	68.1	68.1	68.1	92	65.7	0	0	---	0.00	29.865 
04:20	68.1	68.1	68.1	92	65.7	0	0	---	0.00	29.865 
04:25	68.1	68.1	68.1	92	65.7	0	0	---	0.00	29.865 
04:30	68.1	68.1	68.1	92	65.7	0	0	---	0.00	29.877 
04:35	68.1	68.1	68.1	92	65.7	0	0	---	0.00	29.877 
04:40	67.9	67.9	67.9	92	65.5	0	0	---	0.00	29.877 
04:45	67.8	67.8	67.8	92	65.4	0	0	---	0.00	29.876 
04:50	67.6	67.6	67.6	92	65.2	0	0	---	0.00	29.876 
04:55	67.6	67.6	67.6	92	65.2	0	0	---	0.00	29.876 
05:00	67.4	67.4	67.4	92	65.0	0	0	---	0.00	29.866 
05:05	67.4	67.4	67.4	92	65.0	0	0	---	0.00	29.866 
05:10	67.3	67.3	67.3	92	64.9	0	0	---	0.00	29.866 
05:15	67.3	67.3	67.3	92	64.9	0	0	---	0.00	29.865 
05:20	67.3	67.3	67.3	92	64.9	0	0	---	0.00	29.865 
05:25	67.3	67.3	67.3	93	65.2	0	0	---	0.00	29.865 
05:30	67.1	67.1	67.1	93	65.0	0	0	---	0.00	29.866 
05:35	67.3	67.3	67.3	93	65.2	0	0	---	0.00	29.866 
05:40	67.3	67.3	67.3	93	65.2	0	0	---	0.00	29.866 
05:45	67.3	67.3	67.3	93	65.2	0	0	---	0.00	29.867 
05:50	67.3	67.3	67.3	93	65.2	0	0	---	0.00	29.867 
05:55	67.4	67.4	67.4	93	65.3	0	0	---	0.00	29.867 
06:00	67.6	67.6	67.6	93	65.5	0	0	---	0.00	29.864 
06:05	67.6	67.6	67.6	93	65.5	0	0	---	0.00	29.864 
06:10	67.6	67.6	67.6	93	65.5	0	0	---	0.00	29.864 
06:15	67.6	67.6	67.6	93	65.5	0	0	---	0.00	29.865 
06:20	67.6	67.6	67.6	93	65.5	0	1	68	0.00	29.865 
06:25	67.6	67.6	67.6	93	65.5	0	2	68	0.00	29.865 
06:30	67.8	67.8	67.8	92	65.4	0	2	0	0.00	29.873 
06:35	67.9	67.9	67.9	91	65.2	0	1	0	0.00	29.873 
06:40	68.1	68.1	68.1	90	65.0	0	1	0	0.00	29.873 
06:45	68.1	68.1	68.1	89	64.7	0	2	0	0.00	29.886 
06:50	68.4	68.4	68.4	88	64.7	0	1	0	0.00	29.886 
06:55	68.6	68.6	68.6	87	64.6	0	1	0	0.00	29.886 
07:00	68.6	68.6	68.6	86	64.2	0	0	---	0.00	29.894 
07:05	68.6	68.6	68.6	86	64.2	0	1	0	0.00	29.894 
07:10	68.6	68.6	68.6	85	63.9	0	2	0	0.00	29.894 
07:15	68.9	68.9	68.9	84	63.9	0	2	292	0.00	29.893 
07:20	69.1	69.1	69.1	83	63.7	1	3	292	0.00	29.893 
07:25	69.3	69.3	69.3	82	63.6	1	4	292	0.00	29.893 
07:30	69.6	69.6	69.6	81	63.5	2	4	270	0.00	29.899 
07:35	69.8	69.8	69.8	81	63.7	1	5	292	0.00	29.899 
07:40	69.8	69.8	69.8	81	63.7	1	4	270	0.00	29.899 
07:45	69.9	69.9	69.9	82	64.1	1	3	270	0.00	29.906 
07:50	69.9	69.9	69.9	82	64.1	1	5	248	0.00	29.906 
07:55	69.9	69.9	69.9	82	64.1	2	4	248	0.00	29.906 
08:00	69.9	69.9	69.9	82	64.1	2	5	248	0.00	29.912 
08:05	69.8	69.8	69.8	83	64.4	1	4	270	0.00	29.912 
08:10	69.8	69.8	69.8	83	64.4	0	1	270	0.00	29.912 
08:15	69.6	69.6	69.6	83	64.2	0	2	270	0.00	29.912 
08:20	69.6	69.6	69.6	84	64.5	0	1	270	0.00	29.912 
08:25	69.6	69.6	69.6	84	64.5	0	1	270	0.00	29.912 
08:30	69.4	69.4	69.4	85	64.7	1	4	270	0.00	29.905 
08:35	69.1	69.1	69.1	85	64.4	1	3	270	0.00	29.905 
08:40	68.9	68.9	68.9	86	64.5	1	3	292	0.00	29.905 
08:45	68.8	68.8	68.8	87	64.8	0	1	292	0.00	29.891 
08:50	68.6	68.6	68.6	87	64.6	0	1	292	0.00	29.891 
08:55	68.6	68.6	68.6	88	64.9	0	1	292	0.00	29.891 
09:00	68.4	68.4	68.4	88	64.7	0	1	292	0.00	29.886 
09:05	68.4	68.4	68.4	88	64.7	0	1	292	0.00	29.886 
09:10	68.6	68.6	68.6	88	64.9	0	1	292	0.00	29.886 
09:15	68.6	68.6	68.6	88	64.9	0	0	---	0.00	29.886 
09:20	68.8	68.8	68.8	88	65.1	0	1	292	0.00	29.886 
09:25	68.9	68.9	68.9	88	65.2	0	1	292	0.00	29.886 
09:30	69.1	69.1	69.1	88	65.4	0	1	292	0.00	29.887 
09:35	69.3	69.3	69.3	88	65.6	1	2	292	0.00	29.887 
09:40	69.6	69.6	69.6	88	65.9	0	2	292	0.00	29.887 
09:45	69.8	69.8	69.8	87	65.7	0	2	292	0.00	29.878 
09:50	70.1	70.1	70.1	86	65.7	0	1	292	0.00	29.878 
09:55	70.6	70.6	70.6	86	66.2	0	0	---	0.00	29.878 
10:00	71.3	71.3	71.3	85	66.5	0	1	292	0.00	29.865 
10:05	71.6	71.6	71.6	82	65.8	0	2	292	0.00	29.865 
10:10	72.3	72.3	72.3	80	65.8	1	3	292	0.00	29.865 
10:15	72.7	72.7	72.7	81	66.5	1	3	292	0.00	29.852 
10:20	73.2	73.2	73.2	78	65.9	1	3	292	0.00	29.852 
10:25	73.9	73.9	73.9	78	66.6	0	2	292	0.00	29.852 
10:30	74.4	74.4	74.4	78	67.1	0	1	292	0.00	29.851 
10:35	74.6	74.6	74.6	76	66.5	0	1	292	0.00	29.851 
10:40	74.4	74.4	74.4	75	65.9	0	2	292	0.00	29.851 
10:45	74.4	74.4	74.4	76	66.3	0	2	292	0.00	29.855 
10:50	74.6	74.6	74.6	77	66.9	0	2	292	0.00	29.855 
10:55	74.4	74.4	74.4	76	66.3	1	3	292	0.00	29.855 
11:00	74.2	74.2	74.2	77	66.5	1	3	315	0.00	29.851 
11:05	74.2	74.2	74.2	76	66.1	0	2	315	0.00	29.851 
11:10	74.0	74.0	74.0	76	65.9	0	1	315	0.00	29.851 
11:15	74.0	74.0	74.0	76	65.9	0	3	315	0.00	29.848 
11:20	74.0	74.0	74.0	76	65.9	0	2	315	0.00	29.848 
11:25	74.0	74.0	74.0	77	66.3	1	5	315	0.00	29.848 
11:30	74.2	74.2	74.2	77	66.5	0	2	270	0.00	29.839 
11:35	74.4	74.4	74.4	76	66.3	0	1	270	0.00	29.839 
11:40	74.4	74.4	74.4	77	66.7	0	2	270	0.00	29.839 
11:45	74.2	74.2	74.2	77	66.5	0	2	270	0.00	29.836 
11:50	73.9	73.9	73.9	77	66.2	0	2	270	0.00	29.836 
11:55	73.7	73.7	73.7	77	66.0	0	3	270	0.00	29.836 
12:00	73.5	73.5	73.5	77	65.8	1	2	338	0.00	29.848 
12:05	73.3	73.3	73.3	77	65.6	0	2	338	0.00	29.848 
12:10	73.5	73.5	73.5	77	65.8	0	0	---	0.00	29.848 
12:15	73.5	73.5	73.5	77	65.8	0	1	338	0.00	29.863 
12:20	73.5	73.5	73.5	77	65.8	1	3	338	0.00	29.863 
12:25	73.5	73.5	73.5	77	65.8	0	1	338	0.00	29.863 
12:30	73.7	73.7	73.7	77	66.0	0	1	338	0.00	29.860 
12:35	73.7	73.7	73.7	77	66.0	0	1	338	0.00	29.860 
12:40	73.9	73.9	73.9	76	65.8	0	1	338	0.00	29.860 
12:45	73.9	73.9	73.9	77	66.2	0	0	---	0.00	29.868 
12:50	74.0	74.0	74.0	77	66.3	0	1	338	0.00	29.868 
12:55	74.0	74.0	74.0	76	65.9	0	0	---	0.00	29.868 
13:00	74.2	74.2	74.2	76	66.1	0	0	---	0.00	29.867 
13:05	74.4	74.4	74.4	76	66.3	0	0	---	0.00	29.867 
13:10	74.6	74.6	74.6	75	66.1	0	1	338	0.00	29.867 
13:15	74.9	74.9	74.9	76	66.8	0	0	---	0.00	29.861 
13:20	75.1	75.1	76.4	74	66.2	0	1	338	0.00	29.861 
13:25	75.3	75.3	76.6	74	66.4	0	2	338	0.00	29.861 
13:30	75.3	75.3	76.7	73	66.0	0	1	338	0.00	29.856 
13:35	75.3	75.3	76.7	73	66.0	0	3	0	0.00	29.856 
13:40	75.3	75.3	76.6	74	66.4	0	3	0	0.00	29.856 
13:45	75.3	75.3	76.5	75	66.8	1	3	0	0.00	29.853 
13:50	75.4	75.4	76.6	75	66.9	0	2	0	0.00	29.853 
13:55	75.6	75.6	76.9	75	67.1	0	2	0	0.00	29.853 
14:00	75.6	75.6	77.0	73	66.3	0	1	0	0.00	29.840 
14:05	75.6	75.6	77.0	73	66.3	0	2	0	0.00	29.840 
14:10	75.4	75.4	76.8	73	66.1	0	2	0	0.00	29.840 
14:15	75.6	75.6	76.9	75	67.1	0	2	0	0.00	29.840 
14:20	75.8	75.8	77.0	76	67.7	0	3	0	0.00	29.840 
14:25	75.8	75.8	77.1	75	67.3	0	2	0	0.00	29.840 
14:30	75.6	75.6	77.0	74	66.7	0	2	0	0.00	29.834 
14:35	75.6	75.6	76.9	75	67.1	0	1	0	0.00	29.834 
14:40	75.4	75.4	76.6	75	66.9	0	1	0	0.00	29.834 
14:45	75.4	75.4	76.6	75	66.9	1	3	0	0.00	29.834 
14:50	75.4	75.4	76.4	77	67.7	0	2	0	0.00	29.834 
14:55	75.4	75.4	76.6	75	66.9	0	2	0	0.00	29.834 
15:00	75.4	75.4	76.6	75	66.9	1	4	90	0.00	29.826 
15:05	75.3	75.3	76.4	76	67.2	1	4	90	0.00	29.826 
15:10	75.3	75.3	76.5	75	66.8	2	4	90	0.00	29.826 
15:15	75.3	75.3	76.4	76	67.2	2	5	90	0.00	29.825 
15:20	75.3	75.3	76.3	77	67.6	1	4	112	0.00	29.825 
15:25	75.3	75.3	76.4	76	67.2	1	4	112	0.00	29.825 
15:30	74.7	74.7	74.7	76	66.6	1	3	112	0.00	29.814 
15:35	74.0	74.0	74.0	77	66.3	1	6	112	0.00	29.814 
15:40	73.7	73.7	73.7	77	66.0	1	5	112	0.00	29.814 
15:45	73.3	73.3	73.3	77	65.6	1	4	112	0.00	29.810 
15:50	72.8	72.8	72.8	78	65.5	1	4	112	0.00	29.810 
15:55	72.5	72.5	72.5	79	65.6	0	3	112	0.00	29.810 
16:00	72.1	72.1	72.1	80	65.6	1	7	112	0.00	29.811 
16:05	71.8	71.8	71.8	80	65.3	1	4	68	0.00	29.811 
16:10	71.5	71.5	71.5	82	65.7	1	6	90	0.00	29.811 
16:15	71.1	71.1	71.1	83	65.7	0	3	68	0.00	29.815 
16:20	70.8	70.8	70.8	84	65.7	1	4	90	0.01	29.815 
16:25	70.4	70.4	70.4	85	65.7	1	3	68	0.00	29.815 
16:30	70.1	70.1	70.1	87	66.0	1	3	68	0.00	29.817 
16:35	69.9	69.9	69.9	88	66.2	0	3	90	0.00	29.817 
16:40	69.6	69.6	69.6	88	65.9	0	3	90	0.01	29.817 
16:45	69.4	69.4	69.4	89	66.0	1	3	90	0.02	29.814 
16:50	69.3	69.3	69.3	89	65.9	0	2	90	0.00	29.814 
16:55	69.1	69.1	69.1	90	66.0	0	2	90	0.00	29.814 
17:00	68.9	68.9	68.9	90	65.8	0	2	90	0.00	29.808 
17:05	69.1	69.1	69.1	91	66.4	0	3	90	0.01	29.808 
17:10	69.1	69.1	69.1	91	66.4	1	3	90	0.02	29.808 
17:15	69.4	69.4	69.4	92	67.0	1	4	90	0.00	29.808 
17:20	69.4	69.4	69.4	92	67.0	1	3	90	0.00	29.808 
17:25	69.6	69.6	69.6	92	67.2	0	2	90	0.00	29.808 
17:30	69.4	69.4	69.4	92	67.0	0	2	90	0.00	29.804 
17:35	69.6	69.6	69.6	92	67.2	1	3	90	0.00	29.804 
17:40	69.4	69.4	69.4	91	66.7	1	3	90	0.00	29.804 
17:45	69.3	69.3	69.3	91	66.6	0	2	90	0.00	29.802 
17:50	69.3	69.3	69.3	91	66.6	0	2	90	0.00	29.802 
17:55	69.4	69.4	69.4	91	66.7	0	2	90	0.00	29.802 
18:00	69.4	69.4	69.4	91	66.7	1	4	90	0.00	29.801 
18:05	69.6	69.6	69.6	91	66.8	1	4	90	0.00	29.801 
18:10	69.4	69.4	69.4	90	66.3	0	3	90	0.00	29.801 
18:15	69.4	69.4	69.4	90	66.3	0	2	90	0.00	29.798 
18:20	69.4	69.4	69.4	90	66.3	0	1	90	0.00	29.798 
18:25	69.4	69.4	69.4	90	66.3	0	1	90	0.00	29.798 
18:30	69.4	69.4	69.4	90	66.3	1	3	90	0.00	29.796 
18:35	69.3	69.3	69.3	90	66.2	0	3	90	0.00	29.796 
18:40	69.3	69.3	69.3	90	66.2	0	1	90	0.00	29.796 
18:45	69.3	69.3	69.3	90	66.2	0	1	90	0.00	29.796 
18:50	69.3	69.3	69.3	90	66.2	0	1	90	0.00	29.796 
18:55	69.4	69.4	69.4	90	66.3	1	3	90	0.00	29.796 
19:00	69.3	69.3	69.3	89	65.9	0	1	90	0.00	29.795 
19:05	69.3	69.3	69.3	89	65.9	0	2	90	0.00	29.795 
19:10	69.3	69.3	69.3	89	65.9	0	3	90	0.00	29.795 
19:15	69.3	69.3	69.3	89	65.9	1	3	90	0.00	29.786 
19:20	69.3	69.3	69.3	89	65.9	0	2	90	0.00	29.786 
19:25	69.4	69.4	69.4	89	66.0	0	2	90	0.00	29.786 
19:30	69.4	69.4	69.4	89	66.0	1	4	90	0.00	29.786 
19:35	69.3	69.3	69.3	89	65.9	1	3	90	0.00	29.786 
19:40	69.3	69.3	69.3	89	65.9	1	3	90	0.00	29.786 
19:45	69.3	69.3	69.3	89	65.9	1	3	90	0.00	29.782 
19:50	69.3	69.3	69.3	89	65.9	0	2	90	0.00	29.782 
19:55	69.3	69.3	69.3	89	65.9	1	3	90	0.00	29.782 
20:00	69.3	69.3	69.3	89	65.9	1	3	90	0.00	29.776 
20:05	69.1	69.1	69.1	89	65.7	2	4	90	0.00	29.776 
20:10	69.1	69.1	69.1	89	65.7	1	4	90	0.00	29.776 
20:15	69.1	69.1	69.1	89	65.7	1	4	90	0.00	29.768 
20:20	68.9	68.9	68.9	89	65.5	1	4	90	0.00	29.768 
20:25	68.9	68.9	68.9	90	65.8	1	4	90	0.00	29.768 
20:30	68.9	68.9	68.9	90	65.8	1	4	90	0.00	29.756 
20:35	68.8	68.8	68.8	90	65.7	2	4	90	0.00	29.756 
20:40	68.6	68.6	68.6	91	65.9	2	5	90	0.00	29.756 
20:45	68.4	68.4	68.4	91	65.7	3	6	90	0.00	29.754 
20:50	68.4	68.4	68.4	91	65.7	2	4	90	0.00	29.754 
20:55	68.4	68.4	68.4	91	65.7	2	5	90	0.00	29.754 
21:00	68.4	68.4	68.4	92	66.0	2	6	90	0.00	29.744 
21:05	68.4	68.4	68.4	92	66.0	2	5	90	0.00	29.744 
21:10	68.4	68.4	68.4	92	66.0	3	11	90	0.00	29.744 
21:15	68.4	68.4	68.4	92	66.0	1	5	90	0.00	29.742 
21:20	68.4	68.4	68.4	92	66.0	2	6	90	0.03	29.742 
21:25	67.9	67.9	67.9	92	65.5	3	9	90	0.49	29.742 
21:30	67.6	67.6	67.6	93	65.5	1	7	90	0.17	29.765 
21:35	67.6	67.6	67.6	93	65.5	0	1	90	0.03	29.765 
21:40	67.6	67.6	67.6	94	65.8	1	4	90	0.02	29.765 
21:45	67.4	67.4	67.4	94	65.6	0	1	90	0.04	29.768 
21:50	67.4	67.4	67.4	94	65.6	0	2	90	0.16	29.768 
21:55	67.3	67.3	67.3	94	65.5	0	1	90	0.05	29.768 
22:00	67.1	67.1	67.1	94	65.3	0	2	90	0.01	29.775 
22:05	67.1	67.1	67.1	94	65.3	0	1	90	0.02	29.775 
22:10	66.9	66.9	66.9	94	65.1	0	2	90	0.03	29.775 
22:15	66.6	66.6	66.6	94	64.8	1	3	315	0.05	29.781 
22:20	66.3	66.3	66.3	94	64.5	1	4	270	0.05	29.781 
22:25	66.1	66.1	66.1	95	64.6	0	2	270	0.04	29.781 
22:30	66.0	66.0	66.0	95	64.5	1	4	112	0.03	29.770 
22:35	66.0	66.0	66.0	95	64.5	0	1	112	0.02	29.770 
22:40	65.8	65.8	65.8	95	64.3	0	3	112	0.01	29.770 
22:45	65.8	65.8	65.8	95	64.3	0	2	112	0.01	29.766 
22:50	65.8	65.8	65.8	95	64.3	0	1	112	0.00	29.766 
22:55	65.8	65.8	65.8	95	64.3	0	2	112	0.01	29.766 
23:00	65.6	65.6	65.6	95	64.1	0	2	112	0.00	29.764 
23:05	65.6	65.6	65.6	95	64.1	0	1	112	0.01	29.764 
23:10	65.6	65.6	65.6	95	64.1	0	1	112	0.00	29.764 
23:15	65.6	65.6	65.6	95	64.1	0	1	112	0.01	29.775 
23:20	65.6	65.6	65.6	95	64.1	0	1	112	0.01	29.775 
23:25	65.6	65.6	65.6	95	64.1	0	0	---	0.01	29.775 
23:30	65.6	65.6	65.6	95	64.1	0	0	---	0.01	29.764 
23:35	65.5	65.5	65.5	95	64.0	0	0	---	0.02	29.764 
23:40	65.5	65.5	65.5	96	64.3	0	0	---	0.01	29.764 
23:45	65.5	65.5	65.5	96	64.3	0	1	112	0.01	29.734 
23:50	65.5	65.5	65.5	96	64.3	0	0	---	0.01	29.734 
23:55	65.5	65.5	65.5	96	64.3	0	1	112	0.01	29.734 

CoCoRaHS
IN-AL-39
A2 Web Hosting
Creative Commons License
GoDaddy
search engine by freefind advanced

loaded 2018-11-15 13:29:56 • last modified 2010-11-18 10:43:29
Privacy PolicyDisclaimer
• wx.awcolley.com is powered by PmWiki v.2002016 •
• all content (unless otherwise noted) © 2018 A W Colley